Rechercher aéroport 
image banner adimage banner adimage banner ad
image banner ad

CL75 - Robert D Cloud

Situé à Rosemead, United States

ICAO - CL75, IATA -

Données fournies par Airmate  

Information générale

Coordonnées: N34°3'7" W118°4'50"
Élévation : 312 feet MSL.
Variation magnétique : 14° East
Voir autres Aéroports à California

Données opérationnelles

Special qualification required
Heure actuelle UTC:
Heure actuelle locale:
Météo à : KEMT - San Gabriel Valley ( 6 km )
METAR: KEMT 262046Z 19008KT 8SM CLR 24/18 A2994 RMK BR IN ALL QUADRANTS.
Voir NOTAMs / SUP AIP / TFR affectant cet aéroport [VIEW]
Fréquences de communication: [VIEW]

Pistes:

Coordonnées de l'aéroport

Adresse: Rosemead United States

Vue satellite de CL75